createdAt,value
2019-05-17T00:01:03.824Z,74.60
2019-05-17T00:03:30.906Z,74.62
2019-05-17T00:05:57.970Z,74.69
2019-05-17T00:08:34.318Z,74.73
2019-05-17T00:10:54.167Z,74.64
2019-05-17T00:13:21.272Z,74.67
2019-05-17T00:15:48.347Z,74.66
2019-05-17T00:18:17.127Z,74.67
2019-05-17T00:20:46.523Z,74.82
2019-05-17T00:23:13.640Z,74.80
2019-05-17T00:25:40.741Z,74.81
2019-05-17T00:28:07.835Z,74.97
2019-05-17T00:30:37.215Z,74.75
2019-05-17T00:33:04.101Z,74.66
2019-05-17T00:35:31.201Z,74.64
2019-05-17T00:37:58.249Z,74.64
2019-05-17T00:40:27.020Z,74.59
2019-05-17T00:42:54.180Z,74.53
2019-05-17T00:45:21.275Z,74.59
2019-05-17T00:47:48.377Z,74.73
2019-05-17T00:50:17.018Z,74.85
2019-05-17T00:52:44.642Z,74.92
2019-05-17T00:55:14.661Z,74.89
2019-05-17T00:57:41.767Z,74.91
2019-05-17T01:00:09.129Z,74.87
2019-05-17T01:02:36.427Z,74.81
2019-05-17T01:05:06.180Z,74.92
2019-05-17T01:07:32.734Z,75.08
2019-05-17T01:10:00.833Z,75.26
2019-05-17T01:12:27.909Z,75.29
2019-05-17T01:14:54.998Z,75.43
2019-05-17T01:17:22.064Z,75.54
2019-05-17T01:19:49.137Z,75.60
2019-05-17T01:22:16.860Z,75.76
2019-05-17T01:24:46.172Z,75.72
2019-05-17T01:27:13.210Z,75.81
2019-05-17T01:29:40.287Z,75.85
2019-05-17T01:32:07.367Z,75.91
2019-05-17T01:34:34.460Z,75.90
2019-05-17T01:37:01.518Z,75.99
2019-05-17T01:39:28.576Z,75.92
2019-05-17T01:41:57.383Z,75.92
2019-05-17T01:44:24.494Z,75.83
2019-05-17T01:46:51.580Z,75.87
2019-05-17T01:49:18.660Z,75.93
2019-05-17T01:51:46.475Z,76.07
2019-05-17T01:54:14.050Z,76.23
2019-05-17T01:56:41.112Z,76.38
2019-05-17T01:59:08.188Z,76.53
2019-05-17T02:01:37.084Z,76.74
2019-05-17T02:04:06.499Z,76.81
2019-05-17T02:06:36.605Z,76.88
2019-05-17T02:09:06.582Z,76.75
2019-05-17T02:11:33.668Z,76.68
2019-05-17T02:14:00.757Z,76.88
2019-05-17T02:16:27.856Z,77.03
2019-05-17T02:18:57.185Z,77.06
2019-05-17T02:21:23.881Z,77.37
2019-05-17T02:23:50.959Z,77.54
2019-05-17T02:26:18.031Z,77.67
2019-05-17T02:28:45.094Z,77.70
2019-05-17T02:31:13.363Z,77.88
2019-05-17T02:33:43.016Z,77.85
2019-05-17T02:36:09.521Z,77.81
2019-05-17T02:38:36.594Z,77.97
2019-05-17T02:41:03.817Z,78.15
2019-05-17T02:43:33.395Z,78.32
2019-05-17T02:46:03.229Z,78.52
2019-05-17T02:48:28.887Z,78.50
2019-05-17T02:50:55.939Z,78.48
2019-05-17T02:53:23.280Z,78.50
2019-05-17T02:55:53.713Z,78.61
2019-05-17T02:58:23.069Z,78.75
2019-05-17T03:00:48.357Z,78.83
2019-05-17T03:03:15.431Z,78.98
2019-05-17T03:05:43.190Z,78.90
2019-05-17T03:08:12.323Z,78.85
2019-05-17T03:10:42.986Z,78.78
2019-05-17T03:13:08.332Z,78.88
2019-05-17T03:18:56.095Z,78.42
2019-05-17T03:21:23.155Z,78.82
2019-05-17T03:23:50.223Z,78.52
2019-05-17T03:26:17.321Z,78.17
2019-05-17T03:28:44.410Z,77.88
2019-05-17T03:31:16.654Z,78.04
2019-05-17T03:33:45.389Z,78.06
2019-05-17T03:36:16.033Z,78.01
2019-05-17T03:38:38.960Z,78.13
2019-05-17T03:41:17.039Z,78.21
2019-05-17T03:43:35.853Z,78.43
2019-05-17T03:46:05.023Z,78.32
2019-05-17T03:48:33.400Z,78.35
2019-05-17T03:51:07.485Z,78.30
2019-05-17T03:53:34.554Z,78.37
2019-05-17T03:56:03.013Z,78.39
2019-05-17T03:58:43.062Z,78.30
2019-05-17T04:01:15.514Z,78.22
2019-05-17T04:03:43.410Z,78.15
2019-05-17T04:06:17.895Z,78.18
2019-05-17T04:08:44.980Z,78.15
2019-05-17T04:11:22.519Z,78.44
2019-05-17T04:13:43.011Z,78.69
2019-05-17T04:16:13.744Z,78.84
2019-05-17T04:18:39.043Z,78.87
2019-05-17T04:21:06.109Z,78.78
2019-05-17T04:23:34.142Z,78.86
2019-05-17T04:26:04.299Z,79.25
2019-05-17T04:28:33.413Z,79.50
2019-05-17T04:31:02.802Z,83.30
2019-05-17T04:33:29.556Z,83.09
2019-05-17T04:35:56.675Z,81.64
2019-05-17T04:38:24.061Z,80.25
2019-05-17T04:40:53.723Z,79.58
2019-05-17T04:43:26.647Z,78.86
2019-05-17T04:45:53.960Z,76.92
2019-05-17T04:48:23.264Z,76.36
2019-05-17T04:50:56.100Z,75.78
2019-05-17T04:53:23.552Z,75.79
2019-05-17T04:55:58.446Z,74.35
2019-05-17T04:58:25.535Z,74.83
2019-05-17T05:00:53.747Z,74.91
2019-05-17T05:03:28.502Z,73.01
2019-05-17T05:05:55.555Z,71.38
2019-05-17T05:08:22.701Z,71.07
2019-05-17T05:10:53.151Z,71.35
2019-05-17T05:13:18.780Z,72.56
2019-05-17T05:15:45.871Z,73.03
2019-05-17T05:18:13.670Z,73.50
2019-05-17T05:20:43.448Z,70.77
2019-05-17T05:23:12.122Z,71.44
2019-05-17T05:25:38.980Z,71.57
2019-05-17T05:28:06.058Z,70.87
2019-05-17T05:30:33.165Z,70.61
2019-05-17T05:33:01.993Z,70.54
2019-05-17T05:35:29.187Z,70.67
2019-05-17T05:37:56.302Z,72.26
2019-05-17T05:40:23.420Z,72.16
2019-05-17T05:42:51.605Z,72.22
2019-05-17T05:45:18.669Z,73.28
2019-05-17T05:47:45.725Z,73.47
2019-05-17T05:56:14.801Z,73.95
2019-05-17T05:58:42.847Z,73.75
2019-05-17T06:01:17.727Z,73.75
2019-05-17T06:03:44.803Z,72.77
2019-05-17T06:06:12.390Z,72.87
2019-05-17T06:08:47.342Z,72.91
2019-05-17T06:11:14.425Z,73.27
2019-05-17T06:13:41.939Z,73.24
2019-05-17T06:16:22.568Z,73.76
2019-05-17T06:18:59.070Z,73.85
2019-05-17T06:21:26.162Z,74.09
2019-05-17T06:23:53.228Z,73.97
2019-05-17T06:26:23.466Z,73.95
2019-05-17T06:28:59.134Z,73.97
2019-05-17T06:31:26.236Z,74.14
2019-05-17T06:33:53.385Z,74.11
2019-05-17T06:36:21.710Z,74.12
2019-05-17T06:38:48.830Z,74.15
2019-05-17T06:41:15.919Z,74.15
2019-05-17T06:43:43.031Z,73.78
2019-05-17T06:46:12.240Z,73.76
2019-05-17T06:48:39.164Z,73.61
2019-05-17T06:51:06.249Z,73.18
2019-05-17T06:53:33.682Z,73.02
2019-05-17T06:56:02.625Z,72.44
2019-05-17T06:58:39.792Z,72.00
2019-05-17T07:01:06.848Z,72.14
2019-05-17T07:03:33.944Z,72.01
2019-05-17T07:08:56.041Z,71.81
2019-05-17T07:11:23.146Z,71.48
2019-05-17T07:13:50.241Z,70.96
2019-05-17T07:16:19.587Z,70.62
2019-05-17T07:18:52.271Z,70.52
2019-05-17T07:21:20.543Z,70.16
2019-05-17T07:23:59.372Z,69.94
2019-05-17T07:26:33.601Z,69.02
2019-05-17T07:29:00.728Z,69.14
2019-05-17T07:31:29.805Z,69.31
2019-05-17T07:34:06.720Z,68.79
2019-05-17T07:36:33.871Z,68.75
2019-05-17T07:39:00.952Z,68.35
2019-05-17T07:41:29.867Z,68.34
2019-05-17T07:44:03.273Z,68.33
2019-05-17T07:46:30.457Z,68.33
2019-05-17T07:49:00.197Z,66.91
2019-05-17T07:51:32.812Z,66.98
2019-05-17T07:53:59.910Z,66.55
2019-05-17T07:56:26.971Z,67.08
2019-05-17T07:58:54.027Z,66.38
2019-05-17T08:01:21.135Z,65.65
2019-05-17T08:03:50.095Z,65.94
2019-05-17T08:06:19.809Z,65.58
2019-05-17T08:08:46.170Z,65.17
2019-05-17T08:11:13.241Z,65.80
2019-05-17T08:13:40.337Z,65.28
2019-05-17T08:16:07.408Z,65.18
2019-05-17T08:18:34.491Z,64.90
2019-05-17T08:21:01.573Z,64.55
2019-05-17T08:23:30.447Z,64.28
2019-05-17T08:26:07.413Z,63.62
2019-05-17T08:28:34.470Z,63.93
2019-05-17T08:31:01.582Z,64.10
2019-05-17T08:33:29.856Z,63.36
2019-05-17T08:36:09.336Z,63.45
2019-05-17T08:38:42.834Z,62.63
2019-05-17T08:41:30.991Z,62.00
2019-05-17T08:44:04.698Z,61.67
2019-05-17T08:46:31.837Z,61.67
2019-05-17T08:49:11.860Z,62.34
2019-05-17T08:51:39.696Z,62.34
2019-05-17T08:54:14.223Z,62.09
2019-05-17T08:56:54.088Z,59.71
2019-05-17T08:59:21.163Z,59.71
2019-05-17T09:01:50.465Z,59.92
2019-05-17T09:04:23.823Z,59.54
2019-05-17T09:07:15.905Z,59.12
2019-05-17T09:09:43.050Z,59.09
2019-05-17T09:12:11.100Z,59.57
2019-05-17T09:14:49.595Z,58.61
2019-05-17T09:17:24.077Z,58.06
2019-05-17T09:19:54.276Z,57.19
2019-05-17T09:22:30.585Z,58.06
2019-05-17T09:25:07.369Z,58.18
2019-05-17T09:27:34.743Z,56.91
2019-05-17T09:30:01.868Z,56.39
2019-05-17T09:32:29.642Z,55.95
2019-05-17T09:34:56.845Z,55.68
2019-05-17T09:37:23.932Z,55.61
2019-05-17T09:39:50.983Z,55.20
2019-05-17T09:42:20.789Z,55.16
2019-05-17T09:44:53.559Z,54.80
2019-05-17T09:47:20.848Z,53.31
2019-05-17T09:49:56.084Z,53.16
2019-05-17T09:52:23.270Z,53.71
2019-05-17T09:54:50.623Z,53.23
2019-05-17T09:57:29.835Z,52.78
2019-05-17T10:00:45.501Z,51.75
2019-05-17T10:03:12.594Z,52.03
2019-05-17T10:05:40.596Z,51.62
2019-05-17T10:08:18.548Z,50.38
2019-05-17T10:10:45.589Z,48.48
2019-05-17T10:13:12.645Z,47.32
2019-05-17T10:15:40.998Z,47.55
2019-05-17T10:18:10.758Z,47.02
2019-05-17T10:20:37.192Z,44.67
2019-05-17T10:23:04.290Z,44.89
2019-05-17T10:25:31.349Z,44.65
2019-05-17T10:28:00.503Z,44.54
2019-05-17T10:30:29.807Z,44.52
2019-05-17T10:32:56.386Z,44.35
2019-05-17T10:35:23.435Z,43.72
2019-05-17T10:37:50.746Z,43.31
2019-05-17T10:40:17.809Z,41.49
2019-05-17T10:42:44.900Z,40.88
2019-05-17T10:45:11.975Z,41.69
2019-05-17T10:47:39.614Z,40.93
2019-05-17T10:50:07.459Z,40.50
2019-05-17T10:52:34.603Z,40.38
2019-05-17T10:55:01.705Z,39.69
2019-05-17T10:57:30.224Z,37.60
2019-05-17T11:00:50.145Z,39.50
2019-05-17T11:03:24.186Z,38.42
2019-05-17T11:05:51.294Z,37.88
2019-05-17T11:08:19.731Z,38.56
2019-05-17T11:10:59.439Z,38.21
2019-05-17T11:13:32.438Z,38.69
2019-05-17T11:15:59.533Z,38.55
2019-05-17T11:18:26.657Z,37.25
2019-05-17T11:20:53.728Z,35.66
2019-05-17T11:23:20.830Z,35.93
2019-05-17T11:25:47.908Z,35.60
2019-05-17T11:28:14.999Z,35.20
2019-05-17T11:30:42.244Z,35.20
2019-05-17T11:33:09.326Z,34.85
2019-05-17T11:35:36.456Z,34.50
2019-05-17T11:38:04.319Z,34.61
2019-05-17T11:40:31.419Z,33.65
2019-05-17T11:42:58.552Z,33.68
2019-05-17T11:45:29.113Z,33.43
2019-05-17T11:47:54.626Z,33.25
2019-05-17T11:50:21.924Z,32.70
2019-05-17T11:52:49.009Z,32.47
2019-05-17T11:55:16.090Z,31.84
2019-05-17T11:57:43.223Z,30.71
2019-05-17T12:00:10.733Z,31.10
2019-05-17T12:02:37.839Z,31.07
2019-05-17T12:05:05.361Z,31.46
2019-05-17T12:07:32.461Z,30.41
2019-05-17T12:09:59.537Z,30.30
2019-05-17T12:12:26.624Z,30.15
2019-05-17T12:14:53.689Z,30.05
2019-05-17T12:17:20.812Z,30.35
2019-05-17T12:19:47.884Z,29.12
2019-05-17T12:22:14.988Z,29.44
2019-05-17T12:24:42.062Z,28.92
2019-05-17T12:27:09.140Z,30.81
2019-05-17T12:29:36.219Z,31.82
2019-05-17T12:32:03.379Z,30.63
2019-05-17T12:34:30.463Z,29.14
2019-05-17T12:36:57.581Z,30.21
2019-05-17T12:39:24.702Z,31.11
2019-05-17T12:41:51.822Z,32.12
2019-05-17T12:44:18.962Z,32.32
2019-05-17T12:46:46.081Z,31.95
2019-05-17T12:49:13.183Z,32.48
2019-05-17T12:51:40.324Z,32.57
2019-05-17T12:54:07.436Z,32.37
2019-05-17T12:56:34.509Z,31.88
2019-05-17T12:59:01.645Z,32.24
2019-05-17T13:01:28.825Z,31.30
2019-05-17T13:03:55.942Z,31.75
2019-05-17T13:06:23.052Z,31.03
2019-05-17T13:08:50.147Z,30.61
2019-05-17T13:11:17.229Z,30.01
2019-05-17T13:13:44.399Z,30.19
2019-05-17T13:16:18.048Z,30.49
2019-05-17T13:18:40.491Z,30.30
2019-05-17T13:21:07.629Z,30.14
2019-05-17T13:23:34.705Z,30.43
2019-05-17T13:26:01.814Z,30.95
2019-05-17T13:28:28.881Z,31.21
2019-05-17T13:30:55.982Z,31.67
2019-05-17T13:33:23.079Z,30.84
2019-05-17T13:35:50.186Z,31.45
2019-05-17T13:38:17.274Z,31.34
2019-05-17T13:40:44.467Z,30.17
2019-05-17T13:43:11.583Z,29.72
2019-05-17T13:45:38.664Z,29.77
2019-05-17T13:48:05.774Z,29.89
2019-05-17T13:50:32.857Z,30.05
2019-05-17T13:53:00.013Z,29.59
2019-05-17T13:55:27.080Z,29.66
2019-05-17T13:57:54.171Z,30.14
2019-05-17T14:00:21.277Z,29.37
2019-05-17T14:02:48.451Z,29.66
2019-05-17T14:05:15.554Z,28.74
2019-05-17T14:07:42.685Z,29.03
2019-05-17T14:10:26.421Z,29.93
2019-05-17T14:12:40.961Z,29.35
2019-05-17T14:18:28.703Z,29.29
2019-05-17T14:20:55.786Z,29.35
2019-05-17T14:23:22.901Z,29.16
2019-05-17T14:25:50.040Z,28.23
2019-05-17T14:28:17.099Z,28.59
2019-05-17T14:30:45.119Z,28.68
2019-05-17T14:33:12.217Z,29.15
2019-05-17T14:35:39.377Z,29.12
2019-05-17T14:38:06.483Z,30.90
2019-05-17T14:41:04.173Z,32.59
2019-05-17T14:43:13.118Z,32.92
2019-05-17T14:45:40.195Z,33.80
2019-05-17T14:48:07.317Z,34.11
2019-05-17T14:50:34.386Z,33.18
2019-05-17T14:53:01.484Z,32.66
2019-05-17T14:55:28.604Z,32.29
2019-05-17T14:57:55.670Z,31.25
2019-05-17T15:00:22.782Z,30.64
2019-05-17T15:02:49.865Z,29.37
2019-05-17T15:05:16.976Z,30.02
2019-05-17T15:07:44.025Z,29.79
2019-05-17T15:10:13.495Z,29.97
2019-05-17T15:12:40.580Z,29.30
2019-05-17T15:15:07.768Z,28.97
2019-05-17T15:17:35.461Z,28.75
2019-05-17T15:20:10.490Z,29.28
2019-05-17T15:22:37.585Z,28.79
2019-05-17T15:25:05.886Z,28.95
2019-05-17T15:27:45.142Z,28.59
2019-05-17T15:30:12.279Z,28.44
2019-05-17T15:32:39.296Z,27.90
2019-05-17T15:35:06.502Z,28.87
2019-05-17T15:37:33.583Z,28.98
2019-05-17T15:40:00.676Z,29.11
2019-05-17T15:42:41.881Z,29.65
2019-05-17T15:44:56.769Z,29.83
2019-05-17T15:47:23.904Z,30.48
2019-05-17T15:49:50.997Z,31.28
2019-05-17T15:52:18.071Z,31.27
2019-05-17T15:54:48.403Z,32.91
2019-05-17T15:57:14.126Z,34.10
2019-05-17T15:59:41.210Z,35.15
2019-05-17T16:02:08.308Z,35.48
2019-05-17T16:04:35.395Z,36.21
2019-05-17T16:07:02.484Z,36.48
2019-05-17T16:09:29.538Z,36.39
2019-05-17T16:11:56.660Z,36.17
2019-05-17T16:14:23.712Z,36.51
2019-05-17T16:16:50.797Z,35.20
2019-05-17T16:19:17.863Z,35.51
2019-05-17T16:21:44.976Z,34.82
2019-05-17T16:24:12.040Z,35.53
2019-05-17T16:26:39.162Z,34.71
2019-05-17T16:29:06.252Z,34.65
2019-05-17T16:31:33.352Z,35.10
2019-05-17T16:34:00.409Z,35.38
2019-05-17T16:36:27.521Z,35.85
2019-05-17T16:38:54.630Z,36.20
2019-05-17T16:41:21.730Z,35.96
2019-05-17T16:43:48.798Z,36.70
2019-05-17T16:46:15.897Z,37.16
2019-05-17T16:48:42.989Z,37.73
2019-05-17T16:51:10.114Z,37.83
2019-05-17T16:53:37.282Z,37.91
2019-05-17T16:56:04.386Z,38.26
2019-05-17T16:58:31.531Z,38.19
2019-05-17T17:01:02.791Z,38.23
2019-05-17T17:03:43.254Z,38.93
2019-05-17T17:06:02.805Z,39.75
2019-05-17T17:09:10.754Z,40.38
2019-05-17T17:11:37.875Z,40.71
2019-05-17T17:14:05.039Z,41.54
2019-05-17T17:16:32.139Z,41.87
2019-05-17T17:18:59.214Z,42.58
2019-05-17T17:21:26.318Z,43.41
2019-05-17T17:23:53.411Z,44.12
2019-05-17T17:26:20.510Z,44.79
2019-05-17T17:28:47.626Z,45.54
2019-05-17T17:34:35.335Z,45.94
2019-05-17T17:37:02.477Z,46.25
2019-05-17T17:39:29.571Z,46.41
2019-05-17T17:41:56.639Z,46.42
2019-05-17T17:44:23.759Z,46.54
2019-05-17T17:46:50.808Z,46.72
2019-05-17T17:49:17.870Z,46.80
2019-05-17T17:51:44.934Z,46.88
2019-05-17T17:54:11.975Z,46.85
2019-05-17T17:56:39.026Z,46.85
2019-05-17T17:59:06.116Z,46.96
2019-05-17T18:01:33.186Z,46.94
2019-05-17T18:04:00.276Z,47.47
2019-05-17T18:06:27.343Z,47.96
2019-05-17T18:08:54.422Z,48.29
2019-05-17T18:11:21.450Z,48.48
2019-05-17T18:13:48.598Z,48.65
2019-05-17T18:16:15.664Z,48.98
2019-05-17T18:18:42.752Z,49.67
2019-05-17T18:21:09.874Z,50.40
2019-05-17T18:23:36.951Z,50.55
2019-05-17T18:26:04.388Z,51.10
2019-05-17T18:28:31.472Z,51.38
2019-05-17T18:30:58.557Z,51.76
2019-05-17T18:33:25.627Z,52.06
2019-05-17T18:35:52.707Z,52.44
2019-05-17T18:39:00.647Z,52.68
2019-05-17T18:41:27.718Z,53.09
2019-05-17T18:43:54.917Z,53.11
2019-05-17T18:46:21.995Z,53.46
2019-05-17T18:48:49.124Z,53.36
2019-05-17T18:51:16.196Z,54.01
2019-05-17T18:53:43.392Z,53.99
2019-05-17T18:56:10.431Z,54.12
2019-05-17T18:58:39.287Z,54.44
2019-05-17T19:01:06.528Z,54.60
2019-05-17T19:03:33.651Z,54.92
2019-05-17T19:06:00.804Z,55.23
2019-05-17T19:08:27.915Z,55.36
2019-05-17T19:10:54.973Z,55.70
2019-05-17T19:13:22.089Z,55.81
2019-05-17T19:15:49.150Z,55.91
2019-05-17T19:18:16.241Z,56.39
2019-05-17T19:20:43.383Z,56.82
2019-05-17T19:23:10.499Z,57.07
2019-05-17T19:25:37.581Z,57.21
2019-05-17T19:28:04.735Z,57.72
2019-05-17T19:30:31.829Z,58.39
2019-05-17T19:32:58.891Z,58.85
2019-05-17T19:38:28.011Z,59.38
2019-05-17T19:40:55.163Z,59.80
2019-05-17T19:43:22.249Z,59.95
2019-05-17T19:45:49.353Z,60.28
2019-05-17T19:48:19.665Z,60.92
2019-05-17T19:50:45.582Z,61.26
2019-05-17T19:53:12.662Z,61.66
2019-05-17T19:55:39.772Z,61.96
2019-05-17T19:58:06.940Z,62.34
2019-05-17T20:00:34.029Z,62.82
2019-05-17T20:03:01.104Z,63.15
2019-05-17T20:05:28.247Z,63.60
2019-05-17T20:07:55.614Z,63.78
2019-05-17T20:13:24.611Z,64.31
2019-05-17T20:15:51.711Z,64.53
2019-05-17T20:18:18.819Z,64.43
2019-05-17T20:20:45.916Z,64.43
2019-05-17T20:23:13.074Z,64.22
2019-05-17T20:25:59.631Z,64.54
2019-05-17T20:28:26.956Z,64.54
2019-05-17T20:30:54.091Z,65.08
2019-05-17T20:33:21.250Z,65.08
2019-05-17T20:36:07.865Z,65.43
2019-05-17T20:38:47.788Z,65.58
2019-05-17T20:41:27.801Z,65.54
2019-05-17T20:43:54.948Z,66.13
2019-05-17T20:46:22.068Z,65.94
2019-05-17T20:48:49.139Z,65.94
2019-05-17T20:51:16.240Z,65.81
2019-05-17T20:54:02.854Z,65.82
2019-05-17T20:56:32.917Z,65.78
2019-05-17T20:59:04.860Z,65.78
2019-05-17T21:01:32.019Z,65.95
2019-05-17T21:03:59.115Z,65.95
2019-05-17T21:06:26.195Z,66.27
2019-05-17T21:09:34.110Z,66.50
2019-05-17T21:12:01.231Z,66.44
2019-05-17T21:14:28.335Z,66.59
2019-05-17T21:16:55.408Z,66.59
2019-05-17T21:19:22.471Z,67.07
2019-05-17T21:21:49.558Z,67.04
2019-05-17T21:24:16.653Z,67.26
2019-05-17T21:26:43.960Z,67.36
2019-05-17T21:29:11.062Z,67.57
2019-05-17T21:31:38.180Z,67.54
2019-05-17T21:34:05.228Z,67.63
2019-05-17T21:36:32.293Z,67.66
2019-05-17T21:38:59.442Z,67.75
2019-05-17T21:41:26.513Z,67.69
2019-05-17T21:43:53.609Z,67.69
2019-05-17T21:46:20.783Z,68.24
2019-05-17T21:48:47.781Z,68.38
2019-05-17T21:51:14.879Z,68.62
2019-05-17T21:53:41.948Z,68.67
2019-05-17T21:56:09.033Z,68.91
2019-05-17T21:58:36.099Z,68.84
2019-05-17T22:01:21.177Z,69.00
2019-05-17T22:03:48.262Z,68.95
2019-05-17T22:06:15.466Z,69.12
2019-05-17T22:08:42.650Z,69.11
2019-05-17T22:11:09.715Z,69.09
2019-05-17T22:13:36.796Z,69.21
2019-05-17T22:16:18.610Z,69.42
2019-05-17T22:18:33.014Z,69.57
2019-05-17T22:21:00.129Z,69.80
2019-05-17T22:23:27.212Z,69.95
2019-05-17T22:25:54.497Z,70.00
2019-05-17T22:28:21.639Z,70.16
2019-05-17T22:30:48.713Z,70.33
2019-05-17T22:33:15.809Z,70.42
2019-05-17T22:35:42.919Z,70.34
2019-05-17T22:38:10.052Z,70.45
2019-05-17T22:40:37.115Z,70.50
2019-05-17T22:43:05.201Z,70.65
2019-05-17T22:45:32.295Z,70.95
2019-05-17T22:47:59.419Z,71.10
2019-05-17T22:50:26.490Z,71.31
2019-05-17T22:52:54.478Z,71.29
2019-05-17T22:55:21.538Z,71.34
2019-05-17T22:57:48.628Z,71.27
2019-05-17T23:00:15.740Z,71.45
2019-05-17T23:02:42.828Z,71.52
2019-05-17T23:05:09.909Z,71.68
2019-05-17T23:07:36.964Z,71.68
2019-05-17T23:10:04.438Z,71.65
2019-05-17T23:12:31.554Z,71.78
2019-05-17T23:14:58.613Z,71.71
2019-05-17T23:17:25.713Z,71.81
2019-05-17T23:19:53.995Z,72.01
2019-05-17T23:22:21.079Z,72.29
2019-05-17T23:24:48.174Z,72.27
2019-05-17T23:27:15.281Z,72.44
2019-05-17T23:29:42.409Z,72.43
2019-05-17T23:32:09.500Z,72.41
2019-05-17T23:34:36.565Z,72.62
2019-05-17T23:37:03.655Z,72.52
2019-05-17T23:39:30.754Z,72.72
2019-05-17T23:41:57.881Z,72.55
2019-05-17T23:44:24.990Z,72.46
2019-05-17T23:47:06.208Z,72.48
2019-05-17T23:49:21.045Z,72.69
2019-05-17T23:51:48.108Z,72.77
2019-05-17T23:54:15.162Z,72.80
2019-05-17T23:56:42.259Z,72.70
2019-05-17T23:59:09.378Z,72.73
